Home > Products > Valid Products > TAF

000
FTUS43 KDDC 202320
TAFDDC
TAF
KDDC 202320Z 2100/2124 17007KT P6SM VCTS BKN070CB
     FM210200 04008KT P6SM SCT070 BKN120
     FM211400 05015G23KT P6SM SCT250=



000
FTUS43 KDDC 202320
TAFHYS
TAF
KHYS 202320Z 2100/2124 02009KT P6SM FEW070 BKN120
     FM211400 05012G22KT P6SM SCT250=



000
FTUS43 KDDC 202320
TAFDDC
TAF
KDDC 202320Z 2100/2124 17007KT P6SM VCTS BKN070CB
     FM210200 04008KT P6SM SCT070 BKN120
     FM211400 05015G23KT P6SM SCT250=



000
FTUS43 KDDC 202320
TAFGCK
TAF
KGCK 202320Z 2100/2124 36011KT P6SM FEW070
     FM210200 04008KT P6SM SCT070 BKN120
     FM211400 05015G23KT P6SM SCT250=



000
FTUS43 KDDC 202320
TAFGCK
TAF
KGCK 202320Z 2100/2124 36011KT P6SM FEW070
     FM210200 04008KT P6SM SCT070 BKN120
     FM211400 05015G23KT P6SM SCT250=



000
FTUS43 KDDC 202320
TAFHYS
TAF
KHYS 202320Z 2100/2124 02009KT P6SM FEW070 BKN120
     FM211400 05012G22KT P6SM SCT250=



000
FTUS43 KDDC 201945 AAA
TAFHYS
TAF AMD
KHYS 201945Z 2020/2118 VRB06KT P6SM SCT040
     FM210500 04010KT P6SM SCT040=



000
FTUS43 KDDC 201945 AAA
TAFHYS
TAF AMD
KHYS 201945Z 2020/2118 VRB06KT P6SM SCT040
     FM210500 04010KT P6SM SCT040=



000
FTUS43 KDDC 201944 AAA
TAFDDC
TAF AMD
KDDC 201944Z 2020/2118 VRB06KT P6SM FEW040
     FM202200 04007KT P6SM VCTS SCT040CB
     FM210100 04006KT P6SM SCT040
     FM210900 01010KT P6SM VCTS BKN040CB=



000
FTUS43 KDDC 201944 AAA
TAFDDC
TAF AMD
KDDC 201944Z 2020/2118 VRB06KT P6SM FEW040
     FM202200 04007KT P6SM VCTS SCT040CB
     FM210100 04006KT P6SM SCT040
     FM210900 01010KT P6SM VCTS BKN040CB=



000
FTUS43 KDDC 201944 AAA
TAFGCK
TAF AMD
KGCK 201944Z 2020/2118 VRB06KT P6SM FEW040
     FM210800 04012KT P6SM VCTS BKN040CB=



000
FTUS43 KDDC 201944 AAA
TAFGCK
TAF AMD
KGCK 201944Z 2020/2118 VRB06KT P6SM FEW040
     FM210800 04012KT P6SM VCTS BKN040CB=



000
FTUS43 KDDC 201720
TAFDDC
TAF
KDDC 201720Z 2018/2118 VRB06KT P6SM SKC
     FM202200 04007KT P6SM VCTS SCT050CB
     FM210100 04006KT P6SM SCT050
     FM210900 01010KT P6SM VCTS BKN040CB=



000
FTUS43 KDDC 201720
TAFGCK
TAF
KGCK 201720Z 2018/2118 VRB06KT P6SM SKC
     FM210800 04012KT P6SM VCTS BKN040CB=



000
FTUS43 KDDC 201720
TAFHYS
TAF
KHYS 201720Z 2018/2118 VRB06KT P6SM FEW050
     FM210500 04010KT P6SM SCT050=



000
FTUS43 KDDC 201720
TAFGCK
TAF
KGCK 201720Z 2018/2118 VRB06KT P6SM SKC
     FM210800 04012KT P6SM VCTS BKN040CB=



000
FTUS43 KDDC 201720
TAFHYS
TAF
KHYS 201720Z 2018/2118 VRB06KT P6SM FEW050
     FM210500 04010KT P6SM SCT050=



000
FTUS43 KDDC 201336 AAA
TAFGCK
TAF AMD
KGCK 201336Z 2014/2112 20008KT P6SM SKC
      TEMPO 2014/2016 3SM BR
     FM201900 36008KT P6SM FEW050
     FM210400 04011KT P6SM VCTS BKN050CB
     FM210800 04013KT 6SM BR OVC020=



000
FTUS43 KDDC 201336 AAA
TAFGCK
TAF AMD
KGCK 201336Z 2014/2112 20008KT P6SM SKC
      TEMPO 2014/2016 3SM BR
     FM201900 36008KT P6SM FEW050
     FM210400 04011KT P6SM VCTS BKN050CB
     FM210800 04013KT 6SM BR OVC020=



000
FTUS43 KDDC 201132
TAFDDC
TAF
KDDC 201132Z 2012/2112 20010KT P6SM SKC
     FM202200 04007KT P6SM VCTS SCT050CB
     FM210100 04006KT P6SM FEW080
     FM210500 36008KT P6SM VCTS BKN060CB
     FM210900 01010KT P6SM OVC020=



000
FTUS43 KDDC 201132
TAFHYS
TAF
KHYS 201132Z 2012/2112 22010KT P6SM FEW200
     FM201800 01008KT P6SM FEW050
     FM210000 03010KT P6SM BKN040
     FM210500 04010KT P6SM SCT060=



000
FTUS43 KDDC 201132
TAFGCK
TAF
KGCK 201132Z 2012/2112 20008KT P6SM SKC
     FM201800 36008KT P6SM FEW050
     FM210400 04011KT P6SM VCTS BKN050CB
     FM210800 04013KT 6SM BR OVC020=



000
FTUS43 KDDC 201132
TAFHYS
TAF
KHYS 201132Z 2012/2112 22010KT P6SM FEW200
     FM201800 01008KT P6SM FEW050
     FM210000 03010KT P6SM BKN040
     FM210500 04010KT P6SM SCT060=



000
FTUS43 KDDC 201132
TAFGCK
TAF
KGCK 201132Z 2012/2112 20008KT P6SM SKC
     FM201800 36008KT P6SM FEW050
     FM210400 04011KT P6SM VCTS BKN050CB
     FM210800 04013KT 6SM BR OVC020=



000
FTUS43 KDDC 201132
TAFDDC
TAF
KDDC 201132Z 2012/2112 20010KT P6SM SKC
     FM202200 04007KT P6SM VCTS SCT050CB
     FM210100 04006KT P6SM FEW080
     FM210500 36008KT P6SM VCTS BKN060CB
     FM210900 01010KT P6SM OVC020=



000
FTUS43 KDDC 200530
TAFGCK
TAF
KGCK 200530Z 2006/2106 20010KT P6SM SKC
     FM202000 02010KT P6SM VCTS SCT060CB=



000
FTUS43 KDDC 200530
TAFDDC
TAF
KDDC 200530Z 2006/2106 20010KT P6SM SKC
     FM202100 02010KT P6SM VCTS SCT060CB=



000
FTUS43 KDDC 200530
TAFHYS
TAF
KHYS 200530Z 2006/2106 20010KT P6SM SKC
     FM201900 02010KT P6SM BKN060=



000
FTUS43 KDDC 200530
TAFGCK
TAF
KGCK 200530Z 2006/2106 20010KT P6SM SKC
     FM202000 02010KT P6SM VCTS SCT060CB=



000
FTUS43 KDDC 200530
TAFDDC
TAF
KDDC 200530Z 2006/2106 20010KT P6SM SKC
     FM202100 02010KT P6SM VCTS SCT060CB=



000
FTUS43 KDDC 200530
TAFHYS
TAF
KHYS 200530Z 2006/2106 20010KT P6SM SKC
     FM201900 02010KT P6SM BKN060=



000
FTUS43 KDDC 192320
TAFGCK
TAF
KGCK 192320Z 2000/2024 17015KT P6SM FEW070
     FM200200 18009KT P6SM SCT200=



000
FTUS43 KDDC 192320
TAFGCK
TAF
KGCK 192320Z 2000/2024 17015KT P6SM FEW070
     FM200200 18009KT P6SM SCT200=



000
FTUS43 KDDC 192320
TAFHYS
TAF
KHYS 192320Z 2000/2024 19015KT P6SM SKC
     FM200100 18009KT P6SM SCT200=



000
FTUS43 KDDC 192320
TAFHYS
TAF
KHYS 192320Z 2000/2024 19015KT P6SM SKC
     FM200100 18009KT P6SM SCT200=



000
FTUS43 KDDC 192320
TAFDDC
TAF
KDDC 192320Z 2000/2024 18015KT P6SM FEW060
     FM200200 18009KT P6SM SCT060=



000
FTUS43 KDDC 191747
TAFDDC
TAF
KDDC 191747Z 1918/2018 20016G24KT P6SM SKC
     FM200100 18011KT P6SM SCT070=



000
FTUS43 KDDC 191747
TAFHYS
TAF
KHYS 191747Z 1918/2018 20016G23KT P6SM SKC
     FM200100 18011KT P6SM FEW200=



000
FTUS43 KDDC 191747
TAFGCK
TAF
KGCK 191747Z 1918/2018 20018G26KT P6SM SKC
     FM200100 18010KT P6SM SCT070=



000
FTUS43 KDDC 191747
TAFDDC
TAF
KDDC 191747Z 1918/2018 20016G24KT P6SM SKC
     FM200100 18011KT P6SM SCT070=



000
FTUS43 KDDC 191747
TAFHYS
TAF
KHYS 191747Z 1918/2018 20016G23KT P6SM SKC
     FM200100 18011KT P6SM FEW200=



000
FTUS43 KDDC 191747
TAFGCK
TAF
KGCK 191747Z 1918/2018 20018G26KT P6SM SKC
     FM200100 18010KT P6SM SCT070=



000
FTUS43 KDDC 191130
TAFGCK
TAF
KGCK 191130Z 1912/2012 20007KT P6SM SKC
     FM191600 20018G26KT P6SM SKC
     FM200100 18010KT P6SM SCT070=



000
FTUS43 KDDC 191130
TAFHYS
TAF
KHYS 191130Z 1912/2012 19008KT P6SM SKC
     FM191600 20016G23KT P6SM SKC
     FM200100 18011KT P6SM FEW200=



000
FTUS43 KDDC 191130
TAFDDC
TAF
KDDC 191130Z 1912/2012 20010KT P6SM SKC
     FM191600 20016G24KT P6SM SKC
     FM200100 18011KT P6SM SCT070=



000
FTUS43 KDDC 191130
TAFHYS
TAF
KHYS 191130Z 1912/2012 19008KT P6SM SKC
     FM191600 20016G23KT P6SM SKC
     FM200100 18011KT P6SM FEW200=



000
FTUS43 KDDC 191130
TAFGCK
TAF
KGCK 191130Z 1912/2012 20007KT P6SM SKC
     FM191600 20018G26KT P6SM SKC
     FM200100 18010KT P6SM SCT070=



000
FTUS43 KDDC 191130
TAFDDC
TAF
KDDC 191130Z 1912/2012 20010KT P6SM SKC
     FM191600 20016G24KT P6SM SKC
     FM200100 18011KT P6SM SCT070=



000
FTUS43 KDDC 190530
TAFHYS
TAF
KHYS 190530Z 1906/2006 18010KT P6SM SKC
     FM191700 19016G24KT P6SM SCT200
     FM200000 17010KT P6SM SCT120=



000
FTUS43 KDDC 190530
TAFGCK
TAF
KGCK 190530Z 1906/2006 18010KT P6SM SKC
     FM191700 19016G24KT P6SM SCT200
     FM200000 17010KT P6SM SCT120=



000
FTUS43 KDDC 190530
TAFDDC
TAF
KDDC 190530Z 1906/2006 18010KT P6SM SKC
     FM191700 19016G24KT P6SM SCT200
     FM200000 17010KT P6SM SCT120=



000
FTUS43 KDDC 190530
TAFHYS
TAF
KHYS 190530Z 1906/2006 18010KT P6SM SKC
     FM191700 19016G24KT P6SM SCT200
     FM200000 17010KT P6SM SCT120=



000
FTUS43 KDDC 190530
TAFDDC
TAF
KDDC 190530Z 1906/2006 18010KT P6SM SKC
     FM191700 19016G24KT P6SM SCT200
     FM200000 17010KT P6SM SCT120=



000
FTUS43 KDDC 190530
TAFGCK
TAF
KGCK 190530Z 1906/2006 18010KT P6SM SKC
     FM191700 19016G24KT P6SM SCT200
     FM200000 17010KT P6SM SCT120=



000
FTUS43 KDDC 182320
TAFHYS
TAF
KHYS 182320Z 1900/1924 17015G23KT P6SM SKC
     FM190100 16010KT P6SM SKC
     FM191200 21015KT P6SM FEW200=



000
FTUS43 KDDC 182320
TAFGCK
TAF
KGCK 182320Z 1900/1924 18014G22KT P6SM SKC
     FM190100 17010KT P6SM SKC
     FM191500 20014G20KT P6SM SCT200=



000
FTUS43 KDDC 182320
TAFDDC
TAF
KDDC 182320Z 1900/1924 17014G22KT P6SM SKC
     FM190100 17010KT P6SM SKC
     FM191600 19016G20KT P6SM SCT200=



000
FTUS43 KDDC 182320
TAFHYS
TAF
KHYS 182320Z 1900/1924 17015G23KT P6SM SKC
     FM190100 16010KT P6SM SKC
     FM191200 21015KT P6SM FEW200=



000
FTUS43 KDDC 182320
TAFDDC
TAF
KDDC 182320Z 1900/1924 17014G22KT P6SM SKC
     FM190100 17010KT P6SM SKC
     FM191600 19016G20KT P6SM SCT200=



000
FTUS43 KDDC 182320
TAFGCK
TAF
KGCK 182320Z 1900/1924 18014G22KT P6SM SKC
     FM190100 17010KT P6SM SKC
     FM191500 20014G20KT P6SM SCT200=



000
FTUS43 KDDC 181739
TAFGCK
TAF
KGCK 181739Z 1818/1918 22011KT P6SM SKC
     FM190000 18012KT P6SM SKC
     FM191500 20014G20KT P6SM SCT200=



000
FTUS43 KDDC 181739
TAFDDC
TAF
KDDC 181739Z 1818/1918 23011KT P6SM FEW140
     FM182300 18010KT P6SM SKC
     FM191600 19016G20KT P6SM SCT200=



000
FTUS43 KDDC 181739
TAFHYS
TAF
KHYS 181739Z 1818/1918 09008KT 2SM BR OVC002
     FM181930 13008KT P6SM SCT008
     FM182100 14009KT P6SM SKC
     FM190600 20010KT P6SM SKC
     FM191200 21015KT P6SM FEW200=



000
FTUS43 KDDC 181739
TAFHYS
TAF
KHYS 181739Z 1818/1918 09008KT 2SM BR OVC002
     FM181930 13008KT P6SM SCT008
     FM182100 14009KT P6SM SKC
     FM190600 20010KT P6SM SKC
     FM191200 21015KT P6SM FEW200=



000
FTUS43 KDDC 181739
TAFDDC
TAF
KDDC 181739Z 1818/1918 23011KT P6SM FEW140
     FM182300 18010KT P6SM SKC
     FM191600 19016G20KT P6SM SCT200=



000
FTUS43 KDDC 181739
TAFGCK
TAF
KGCK 181739Z 1818/1918 22011KT P6SM SKC
     FM190000 18012KT P6SM SKC
     FM191500 20014G20KT P6SM SCT200=



000
FTUS43 KDDC 181717 AAA
TAFHYS
TAF AMD
KHYS 181717Z 1817/1912 09008KT 2SM BR OVC002
     FM181900 13008KT P6SM SCT008
     FM182000 14009KT P6SM FEW140
     FM190600 20010KT P6SM SKC=



000
FTUS43 KDDC 181717 AAA
TAFHYS
TAF AMD
KHYS 181717Z 1817/1912 09008KT 2SM BR OVC002
     FM181900 13008KT P6SM SCT008
     FM182000 14009KT P6SM FEW140
     FM190600 20010KT P6SM SKC=



000
FTUS43 KDDC 181244 AAA
TAFGCK
TAF AMD
KGCK 181244Z 1813/1912 VRB06KT P6SM FEW140
     FM181600 22011KT P6SM SKC
     FM190000 18012KT P6SM SKC=



000
FTUS43 KDDC 181244 AAA
TAFGCK
TAF AMD
KGCK 181244Z 1813/1912 VRB06KT P6SM FEW140
     FM181600 22011KT P6SM SKC
     FM190000 18012KT P6SM SKC=



000
FTUS43 KDDC 181136
TAFGCK
TAF
KGCK 181136Z 1812/1912 VRB06KT 3SM BR FEW140
      TEMPO 1812/1813 1SM BR
     FM181400 VRB06KT P6SM FEW140
     FM181600 22011KT P6SM SKC
     FM190000 18012KT P6SM SKC=



000
FTUS43 KDDC 181136
TAFGCK
TAF
KGCK 181136Z 1812/1912 VRB06KT 3SM BR FEW140
      TEMPO 1812/1813 1SM BR
     FM181400 VRB06KT P6SM FEW140
     FM181600 22011KT P6SM SKC
     FM190000 18012KT P6SM SKC=



000
FTUS43 KDDC 181136
TAFDDC
TAF
KDDC 181136Z 1812/1912 27006KT P6SM FEW140
     FM181600 23011KT P6SM FEW140
     FM182300 18010KT P6SM SKC=



000
FTUS43 KDDC 181136
TAFDDC
TAF
KDDC 181136Z 1812/1912 27006KT P6SM FEW140
     FM181600 23011KT P6SM FEW140
     FM182300 18010KT P6SM SKC=



000
FTUS43 KDDC 181136
TAFHYS
TAF
KHYS 181136Z 1812/1912 10010KT 3SM BR OVC004
     FM181400 11008KT 5SM BR OVC005
     FM181700 13008KT P6SM SCT008
     FM182000 14009KT P6SM FEW140
     FM190600 20010KT P6SM SKC=



000
FTUS43 KDDC 181136
TAFHYS
TAF
KHYS 181136Z 1812/1912 10010KT 3SM BR OVC004
     FM181400 11008KT 5SM BR OVC005
     FM181700 13008KT P6SM SCT008
     FM182000 14009KT P6SM FEW140
     FM190600 20010KT P6SM SKC=



000
FTUS43 KDDC 180959 AAB
TAFHYS
TAF AMD
KHYS 180959Z 1810/1906 09008KT 2SM BR OVC003
     FM181500 11008KT P6SM BKN015
     FM181800 13010KT P6SM SCT030=



000
FTUS43 KDDC 180959 AAB
TAFHYS
TAF AMD
KHYS 180959Z 1810/1906 09008KT 2SM BR OVC003
     FM181500 11008KT P6SM BKN015
     FM181800 13010KT P6SM SCT030=



000
FTUS43 KDDC 180957 AAA
TAFGCK
TAF AMD
KGCK 180957Z 1810/1906 VRB06KT P6SM SCT200
      TEMPO 1812/1814 4SM BR BKN005
     FM181400 17011KT P6SM SCT200=



000
FTUS43 KDDC 180957 AAA
TAFGCK
TAF AMD
KGCK 180957Z 1810/1906 VRB06KT P6SM SCT200
      TEMPO 1812/1814 4SM BR BKN005
     FM181400 17011KT P6SM SCT200=



000
FTUS43 KDDC 180956 AAB
TAFDDC
TAF AMD
KDDC 180956Z 1810/1906 23006KT P6SM SCT200
     FM181400 16011KT P6SM SCT200=



000
FTUS43 KDDC 180956 AAB
TAFDDC
TAF AMD
KDDC 180956Z 1810/1906 23006KT P6SM SCT200
     FM181400 16011KT P6SM SCT200=



000
FTUS43 KDDC 180638 AAA
TAFHYS
TAF AMD
KHYS 180638Z 1807/1906 09008KT P6SM OVC008
      TEMPO 1808/1812 3SM BR OVC005
     FM181600 13010KT P6SM SCT030=



000
FTUS43 KDDC 180638 AAA
TAFHYS
TAF AMD
KHYS 180638Z 1807/1906 09008KT P6SM OVC008
      TEMPO 1808/1812 3SM BR OVC005
     FM181600 13010KT P6SM SCT030=



000
FTUS43 KDDC 180527
TAFGCK
TAF
KGCK 180527Z 1806/1906 VRB06KT P6SM SCT200
     FM181200 11008KT 1/2SM FG VV001
     FM181400 17011KT P6SM SCT200=



000
FTUS43 KDDC 180527
TAFDDC
TAF
KDDC 180527Z 1806/1906 23006KT P6SM SCT200
     FM181000 13006KT 2SM BR SCT002
     FM181400 17011KT P6SM SCT200=



000
FTUS43 KDDC 180527
TAFHYS
TAF
KHYS 180527Z 1806/1906 09008KT P6SM SCT200
     FM180900 11008KT 2SM BR SCT007
     FM181100 11007KT 1/2SM FG VV002
     FM181400 12010KT 3SM BR BKN007
     FM181600 13010KT P6SM SCT030=



000
FTUS43 KDDC 180527
TAFHYS
TAF
KHYS 180527Z 1806/1906 09008KT P6SM SCT200
     FM180900 11008KT 2SM BR SCT007
     FM181100 11007KT 1/2SM FG VV002
     FM181400 12010KT 3SM BR BKN007
     FM181600 13010KT P6SM SCT030=



000
FTUS43 KDDC 180527
TAFGCK
TAF
KGCK 180527Z 1806/1906 VRB06KT P6SM SCT200
     FM181200 11008KT 1/2SM FG VV001
     FM181400 17011KT P6SM SCT200=



000
FTUS43 KDDC 180527
TAFDDC
TAF
KDDC 180527Z 1806/1906 23006KT P6SM SCT200
     FM181000 13006KT 2SM BR SCT002
     FM181400 17011KT P6SM SCT200=



    US Dept of Commerce
    National Oceanic and Atmospheric Administration
    National Weather Service
    1325 East West Highway
    Silver Spring, MD 20910
    Page Author: NWS Internet Services Team
Disclaimer
Information Quality
Credits
Glossary
Privacy Policy
Freedom of Information Act (FOIA)
About Us
Career Opportunities